createdAt,value
2018-04-24T00:00:21.649Z,0
2018-04-24T00:01:02.012Z,0
2018-04-24T00:01:42.554Z,0
2018-04-24T00:02:22.834Z,0
2018-04-24T00:03:03.175Z,0
2018-04-24T00:03:43.603Z,0
2018-04-24T00:04:24.110Z,0
2018-04-24T00:05:05.818Z,0
2018-04-24T00:05:46.265Z,0
2018-04-24T00:06:26.647Z,0
2018-04-24T00:07:07.107Z,0
2018-04-24T00:07:48.525Z,0
2018-04-24T00:08:28.951Z,0
2018-04-24T00:09:09.400Z,0
2018-04-24T00:09:50.194Z,0
2018-04-24T00:10:30.567Z,0
2018-04-24T00:11:10.996Z,0
2018-04-24T00:11:51.455Z,0
2018-04-24T00:12:31.763Z,0
2018-04-24T00:13:12.201Z,0
2018-04-24T00:13:52.579Z,0
2018-04-24T00:14:33.049Z,0
2018-04-24T00:15:13.492Z,0
2018-04-24T00:15:53.852Z,0
2018-04-24T00:16:34.195Z,0
2018-04-24T00:18:35.699Z,0
2018-04-24T00:19:14.854Z,0
2018-04-24T00:19:55.301Z,0
2018-04-24T00:20:35.894Z,0
2018-04-24T00:21:16.373Z,0
2018-04-24T00:21:56.728Z,0
2018-04-24T00:22:37.137Z,0
2018-04-24T00:23:17.560Z,0
2018-04-24T00:23:57.962Z,0
2018-04-24T00:24:38.436Z,0
2018-04-24T00:25:18.878Z,0
2018-04-24T00:25:59.244Z,0
2018-04-24T00:26:40.459Z,0
2018-04-24T00:27:21.376Z,0
2018-04-24T00:28:01.871Z,0
2018-04-24T00:28:42.159Z,0
2018-04-24T00:29:22.579Z,0
2018-04-24T00:30:03.024Z,0
2018-04-24T00:30:43.417Z,0
2018-04-24T00:31:23.806Z,0
2018-04-24T00:32:04.202Z,0
2018-04-24T00:32:45.829Z,0
2018-04-24T00:33:26.162Z,0
2018-04-24T00:34:06.473Z,0
2018-04-24T00:34:46.956Z,0
2018-04-24T00:35:27.269Z,0
2018-04-24T00:36:07.723Z,0
2018-04-24T00:36:48.132Z,0
2018-04-24T00:37:28.583Z,0
2018-04-24T00:38:08.931Z,0
2018-04-24T00:38:50.026Z,0
2018-04-24T00:39:30.433Z,0
2018-04-24T00:40:10.853Z,0
2018-04-24T00:40:51.264Z,0
2018-04-24T00:41:31.746Z,0
2018-04-24T00:42:12.517Z,0
2018-04-24T00:42:53.374Z,0
2018-04-24T00:43:33.659Z,0
2018-04-24T00:44:14.142Z,0
2018-04-24T00:44:54.506Z,0
2018-04-24T00:45:36.041Z,0
2018-04-24T00:46:15.657Z,0
2018-04-24T00:46:55.992Z,0
2018-04-24T00:47:36.472Z,0
2018-04-24T00:48:17.020Z,0
2018-04-24T00:48:57.518Z,0
2018-04-24T00:49:37.880Z,0
2018-04-24T00:50:19.072Z,0
2018-04-24T00:50:59.389Z,0
2018-04-24T00:51:39.784Z,0
2018-04-24T00:52:20.187Z,0
2018-04-24T00:53:00.680Z,0
2018-04-24T00:53:41.350Z,0
2018-04-24T00:54:22.400Z,0
2018-04-24T00:55:02.866Z,0
2018-04-24T00:55:43.660Z,0
2018-04-24T00:56:23.969Z,0
2018-04-24T00:57:04.372Z,0
2018-04-24T00:57:44.905Z,0
2018-04-24T00:58:25.242Z,0
2018-04-24T00:59:05.717Z,0
2018-04-24T00:59:46.045Z,0
2018-04-24T01:00:26.469Z,0
2018-04-24T01:01:06.878Z,0
2018-04-24T01:01:47.313Z,0
2018-04-24T01:02:27.736Z,0
2018-04-24T01:03:08.205Z,0
2018-04-24T01:03:48.675Z,0
2018-04-24T01:04:29.016Z,0
2018-04-24T01:05:09.441Z,0
2018-04-24T01:05:49.830Z,0
2018-04-24T01:06:30.416Z,0
2018-04-24T01:07:10.814Z,0
2018-04-24T01:07:51.200Z,0
2018-04-24T01:08:32.005Z,0
2018-04-24T01:09:12.059Z,0
2018-04-24T01:09:52.503Z,0
2018-04-24T01:10:33.034Z,0
2018-04-24T01:11:13.421Z,0
2018-04-24T01:11:53.730Z,0
2018-04-24T01:12:34.136Z,0
2018-04-24T01:13:14.532Z,0
2018-04-24T01:13:55.005Z,0
2018-04-24T01:14:35.436Z,0
2018-04-24T01:15:15.780Z,0
2018-04-24T01:15:56.337Z,0
2018-04-24T01:16:36.727Z,0
2018-04-24T01:17:17.326Z,0
2018-04-24T01:17:57.521Z,0
2018-04-24T01:18:37.931Z,0
2018-04-24T01:19:18.400Z,0
2018-04-24T01:19:58.776Z,0
2018-04-24T01:20:39.129Z,0
2018-04-24T01:21:19.589Z,0
2018-04-24T01:22:00.067Z,0
2018-04-24T01:22:40.375Z,0
2018-04-24T01:23:20.705Z,0
2018-04-24T01:24:01.321Z,0
2018-04-24T01:24:41.543Z,0
2018-04-24T01:25:21.943Z,0
2018-04-24T01:26:02.349Z,0
2018-04-24T01:26:45.798Z,0
2018-04-24T01:27:26.129Z,0
2018-04-24T01:28:06.767Z,0
2018-04-24T01:28:47.469Z,0
2018-04-24T01:29:28.668Z,0
2018-04-24T01:30:09.224Z,0
2018-04-24T01:30:49.623Z,0
2018-04-24T01:31:31.527Z,0
2018-04-24T01:32:11.967Z,0
2018-04-24T01:32:52.305Z,0
2018-04-24T01:33:32.838Z,0
2018-04-24T01:34:13.193Z,0
2018-04-24T01:36:48.007Z,0
2018-04-24T01:37:28.395Z,0
2018-04-24T01:38:08.812Z,0
2018-04-24T01:38:49.449Z,0
2018-04-24T01:39:29.846Z,0
2018-04-24T01:40:10.269Z,0
2018-04-24T01:40:50.669Z,0
2018-04-24T01:41:31.063Z,0
2018-04-24T01:42:11.543Z,0
2018-04-24T01:42:51.929Z,0
2018-04-24T01:43:32.338Z,0
2018-04-24T01:44:12.807Z,0
2018-04-24T01:44:53.257Z,0
2018-04-24T01:45:33.596Z,0
2018-04-24T01:46:14.040Z,0
2018-04-24T01:46:54.510Z,0
2018-04-24T01:47:35.668Z,0
2018-04-24T01:48:16.185Z,0
2018-04-24T01:48:56.689Z,0
2018-04-24T01:49:37.023Z,0
2018-04-24T01:50:17.529Z,0
2018-04-24T01:58:11.967Z,0
2018-04-24T01:58:52.242Z,0
2018-04-24T01:59:32.764Z,0
2018-04-24T02:00:13.162Z,0
2018-04-24T02:00:53.514Z,0
2018-04-24T02:01:33.972Z,0
2018-04-24T02:02:14.306Z,0
2018-04-24T02:02:54.780Z,0
2018-04-24T02:03:35.940Z,0
2018-04-24T02:04:16.321Z,0
2018-04-24T02:04:56.781Z,0
2018-04-24T02:05:37.132Z,0
2018-04-24T02:06:17.553Z,0
2018-04-24T02:06:58.036Z,0
2018-04-24T02:07:38.484Z,0
2018-04-24T02:08:19.768Z,0
2018-04-24T02:09:00.102Z,0
2018-04-24T02:09:40.543Z,0
2018-04-24T02:10:20.932Z,0
2018-04-24T02:11:01.432Z,0
2018-04-24T02:11:41.762Z,0
2018-04-24T02:12:22.144Z,0
2018-04-24T02:13:02.593Z,0
2018-04-24T02:13:42.989Z,0
2018-04-24T02:14:23.368Z,0
2018-04-24T02:15:03.825Z,0
2018-04-24T02:15:44.210Z,0
2018-04-24T02:16:24.727Z,0
2018-04-24T02:17:05.075Z,0
2018-04-24T02:17:45.403Z,0
2018-04-24T02:23:54.935Z,0
2018-04-24T02:26:34.276Z,0
2018-04-24T02:27:14.630Z,0
2018-04-24T02:27:54.950Z,0
2018-04-24T02:28:35.291Z,0
2018-04-24T02:29:15.697Z,0
2018-04-24T02:29:56.666Z,0
2018-04-24T02:30:36.991Z,0
2018-04-24T02:31:17.386Z,0
2018-04-24T02:31:58.470Z,0
2018-04-24T02:32:38.844Z,0
2018-04-24T02:33:19.789Z,0
2018-04-24T02:34:00.059Z,0
2018-04-24T02:34:40.480Z,0
2018-04-24T02:35:20.886Z,0
2018-04-24T02:36:01.307Z,0
2018-04-24T02:36:41.747Z,0
2018-04-24T02:37:22.551Z,0
2018-04-24T02:38:02.734Z,0
2018-04-24T02:38:43.074Z,0
2018-04-24T02:39:23.589Z,0
2018-04-24T02:40:04.092Z,0
2018-04-24T02:40:44.620Z,0
2018-04-24T02:41:26.324Z,0
2018-04-24T02:42:06.714Z,0
2018-04-24T02:42:47.213Z,0
2018-04-24T02:43:27.646Z,0
2018-04-24T02:44:08.038Z,0
2018-04-24T02:44:48.446Z,0
2018-04-24T02:45:29.037Z,0
2018-04-24T02:46:09.409Z,0
2018-04-24T02:46:49.715Z,0
2018-04-24T02:47:30.109Z,0
2018-04-24T02:48:10.528Z,0
2018-04-24T02:48:50.996Z,0
2018-04-24T02:49:31.384Z,0
2018-04-24T02:50:11.847Z,0
2018-04-24T02:50:52.195Z,0
2018-04-24T02:51:32.605Z,0
2018-04-24T02:52:13.048Z,0
2018-04-24T02:52:53.465Z,0
2018-04-24T02:53:33.901Z,0
2018-04-24T02:54:14.314Z,0
2018-04-24T02:54:54.748Z,0
2018-04-24T02:55:35.155Z,0
2018-04-24T02:56:15.496Z,0
2018-04-24T02:56:55.907Z,0
2018-04-24T02:57:36.300Z,0
2018-04-24T02:58:16.765Z,0
2018-04-24T02:58:57.097Z,0
2018-04-24T02:59:37.536Z,0
2018-04-24T03:00:18.035Z,0
2018-04-24T03:00:58.335Z,0
2018-04-24T03:01:39.227Z,0
2018-04-24T03:02:19.732Z,0
2018-04-24T03:03:00.073Z,0
2018-04-24T03:05:14.576Z,0
2018-04-24T03:05:54.764Z,0
2018-04-24T03:06:35.243Z,0
2018-04-24T03:07:15.925Z,0
2018-04-24T03:07:56.330Z,0
2018-04-24T03:08:36.761Z,0
2018-04-24T03:09:17.275Z,0
2018-04-24T03:09:58.264Z,0
2018-04-24T03:10:38.555Z,0
2018-04-24T03:11:18.967Z,0
2018-04-24T03:11:59.440Z,0
2018-04-24T03:12:39.949Z,0
2018-04-24T03:13:20.319Z,0
2018-04-24T03:14:00.737Z,0
2018-04-24T03:14:41.327Z,0
2018-04-24T03:15:21.875Z,0
2018-04-24T03:16:02.162Z,0
2018-04-24T03:16:42.717Z,0
2018-04-24T03:17:23.024Z,0
2018-04-24T03:18:03.457Z,0
2018-04-24T03:18:43.907Z,0
2018-04-24T03:19:24.371Z,0
2018-04-24T03:20:04.909Z,0
2018-04-24T03:20:45.845Z,0
2018-04-24T03:21:26.228Z,0
2018-04-24T03:22:06.629Z,0
2018-04-24T03:22:47.176Z,0
2018-04-24T03:23:27.741Z,0
2018-04-24T03:24:08.176Z,0
2018-04-24T03:24:48.646Z,0
2018-04-24T03:25:29.006Z,0
2018-04-24T03:26:09.429Z,0
2018-04-24T03:26:49.771Z,0
2018-04-24T03:27:31.002Z,0
2018-04-24T03:28:11.585Z,0
2018-04-24T03:28:51.823Z,0
2018-04-24T03:29:33.025Z,0
2018-04-24T03:30:13.057Z,0
2018-04-24T03:30:53.557Z,0
2018-04-24T03:31:33.947Z,0
2018-04-24T03:32:14.333Z,0
2018-04-24T03:32:54.802Z,0
2018-04-24T03:33:35.405Z,0
2018-04-24T03:34:15.610Z,0
2018-04-24T03:34:56.121Z,0
2018-04-24T03:35:36.588Z,0
2018-04-24T03:36:16.971Z,0
2018-04-24T03:36:57.513Z,0
2018-04-24T03:37:38.320Z,0
2018-04-24T03:38:19.372Z,0
2018-04-24T03:38:59.654Z,0
2018-04-24T03:39:40.291Z,0
2018-04-24T03:40:21.209Z,0
2018-04-24T03:41:01.357Z,0
2018-04-24T03:41:41.648Z,0
2018-04-24T03:42:22.185Z,0
2018-04-24T03:43:02.732Z,0
2018-04-24T03:43:43.250Z,0
2018-04-24T03:44:23.611Z,0
2018-04-24T03:45:03.896Z,0
2018-04-24T03:45:44.644Z,0
2018-04-24T03:46:24.861Z,0
2018-04-24T03:47:05.234Z,0
2018-04-24T03:47:45.821Z,0
2018-04-24T03:48:26.041Z,0
2018-04-24T03:49:06.469Z,0
2018-04-24T03:49:46.880Z,4
2018-04-24T03:50:27.416Z,4
2018-04-24T03:51:07.924Z,0
2018-04-24T03:51:48.631Z,0
2018-04-24T03:52:29.338Z,0
2018-04-24T03:53:09.953Z,4
2018-04-24T03:53:50.490Z,4
2018-04-24T03:54:30.874Z,0
2018-04-24T03:55:11.536Z,4
2018-04-24T03:55:51.759Z,4
2018-04-24T03:56:32.569Z,4
2018-04-24T03:57:12.915Z,4
2018-04-24T03:57:53.110Z,8
2018-04-24T03:58:33.658Z,4
2018-04-24T03:59:14.025Z,4
2018-04-24T03:59:54.471Z,8
2018-04-24T04:00:35.218Z,8
2018-04-24T04:01:15.907Z,8
2018-04-24T04:01:56.267Z,8
2018-04-24T04:41:56.867Z,320
2018-04-24T04:42:45.513Z,304
2018-04-24T04:43:25.962Z,316
2018-04-24T04:44:06.447Z,340
2018-04-24T04:44:46.849Z,348
2018-04-24T04:45:27.172Z,352
2018-04-24T04:46:08.160Z,340
2018-04-24T04:46:48.212Z,340
2018-04-24T04:47:28.702Z,348
2018-04-24T04:48:09.113Z,360
2018-04-24T04:48:49.457Z,376
2018-04-24T04:49:29.895Z,396
2018-04-24T04:50:10.607Z,444
2018-04-24T04:50:50.890Z,508
2018-04-24T04:51:34.605Z,600
2018-04-24T04:52:13.839Z,668
2018-04-24T04:52:54.516Z,672
2018-04-24T04:53:34.887Z,596
2018-04-24T04:54:15.281Z,520
2018-04-24T04:54:55.992Z,464
2018-04-24T04:55:36.198Z,436
2018-04-24T04:56:16.610Z,428
2018-04-24T04:56:56.966Z,428
2018-04-24T04:57:37.529Z,440
2018-04-24T04:58:18.014Z,448
2018-04-24T04:58:58.563Z,456
2018-04-24T04:59:38.945Z,464
2018-04-24T05:00:19.336Z,476
2018-04-24T05:00:59.742Z,492
2018-04-24T05:01:40.162Z,508
2018-04-24T05:02:20.755Z,524
2018-04-24T05:03:01.265Z,540
2018-04-24T05:03:41.638Z,564
2018-04-24T05:04:23.157Z,584
2018-04-24T05:05:03.132Z,612
2018-04-24T05:05:44.446Z,640
2018-04-24T05:06:25.140Z,660
2018-04-24T05:07:05.428Z,692
2018-04-24T05:07:45.797Z,716
2018-04-24T05:08:26.309Z,740
2018-04-24T05:09:06.539Z,764
2018-04-24T05:09:47.133Z,788
2018-04-24T05:10:29.253Z,812
2018-04-24T05:11:09.157Z,832
2018-04-24T05:11:49.312Z,848
2018-04-24T05:12:29.860Z,856
2018-04-24T05:13:10.855Z,868
2018-04-24T05:13:51.325Z,880
2018-04-24T05:14:31.921Z,888
2018-04-24T05:15:12.287Z,904
2018-04-24T05:15:53.311Z,924
2018-04-24T05:16:33.899Z,948
2018-04-24T05:17:14.290Z,980
2018-04-24T05:17:55.576Z,1016
2018-04-24T05:18:35.632Z,1048
2018-04-24T05:19:16.384Z,1076
2018-04-24T05:19:56.812Z,1108
2018-04-24T05:20:37.639Z,1144
2018-04-24T05:21:18.045Z,1188
2018-04-24T05:21:58.430Z,1228
2018-04-24T05:22:38.832Z,1272
2018-04-24T05:23:19.255Z,1320
2018-04-24T05:24:00.028Z,1372
2018-04-24T05:24:40.259Z,1412
2018-04-24T05:25:20.786Z,1448
2018-04-24T05:26:01.548Z,1488
2018-04-24T05:26:42.015Z,1532
2018-04-24T05:27:23.005Z,1596
2018-04-24T05:28:03.399Z,1664
2018-04-24T05:28:43.698Z,1716
2018-04-24T05:29:24.367Z,1756
2018-04-24T05:30:04.688Z,1748
2018-04-24T05:30:45.303Z,1780
2018-04-24T05:31:25.982Z,1776
2018-04-24T05:32:06.556Z,1848
2018-04-24T05:32:46.854Z,2028
2018-04-24T05:33:27.179Z,2228
2018-04-24T05:34:08.015Z,2340
2018-04-24T05:34:48.420Z,2500
2018-04-24T05:35:29.110Z,2328
2018-04-24T05:36:09.367Z,2216
2018-04-24T05:36:49.866Z,2244
2018-04-24T05:37:30.599Z,2328
2018-04-24T05:38:12.001Z,2468
2018-04-24T05:38:51.776Z,2620
2018-04-24T05:39:32.095Z,2816
2018-04-24T05:40:12.544Z,2956
2018-04-24T05:40:53.015Z,3156
2018-04-24T05:41:33.294Z,3196
2018-04-24T05:42:13.705Z,3296
2018-04-24T05:42:54.058Z,3356
2018-04-24T05:43:34.581Z,3404
2018-04-24T05:44:15.488Z,3468
2018-04-24T05:44:55.840Z,4268
2018-04-24T05:45:36.321Z,4260
2018-04-24T05:46:16.743Z,4352
2018-04-24T05:46:57.823Z,4092
2018-04-24T05:47:38.782Z,3392
2018-04-24T05:48:19.418Z,3132
2018-04-24T05:49:00.290Z,3292
2018-04-24T05:49:40.380Z,3244
2018-04-24T05:50:20.749Z,3312
2018-04-24T05:51:01.533Z,3876
2018-04-24T05:51:41.995Z,4480
2018-04-24T05:52:22.540Z,5332
2018-04-24T05:53:03.522Z,5384
2018-04-24T05:53:43.704Z,6688
2018-04-24T05:54:24.104Z,6204
2018-04-24T05:55:04.899Z,5968
2018-04-24T05:55:45.223Z,5696
2018-04-24T05:56:25.785Z,6484
2018-04-24T05:57:06.393Z,6652
2018-04-24T05:57:47.675Z,7124
2018-04-24T05:58:28.063Z,7920
2018-04-24T05:59:08.756Z,7312
2018-04-24T05:59:50.719Z,6940
2018-04-24T06:00:30.214Z,8284
2018-04-24T06:01:10.927Z,10340
2018-04-24T06:01:51.957Z,12384
2018-04-24T06:02:32.637Z,12708
2018-04-24T06:03:14.105Z,13268
2018-04-24T06:03:54.409Z,14944
2018-04-24T06:04:34.805Z,14032
2018-04-24T06:05:15.390Z,13972
2018-04-24T06:05:55.741Z,15328
2018-04-24T06:06:36.290Z,17440
2018-04-24T06:07:16.689Z,17216
2018-04-24T06:07:57.126Z,15200
2018-04-24T06:08:37.895Z,12204
2018-04-24T06:09:18.205Z,10128
2018-04-24T06:09:58.657Z,9568
2018-04-24T06:10:39.071Z,6524
2018-04-24T06:11:19.760Z,6652
2018-04-24T06:12:00.284Z,4608
2018-04-24T06:12:41.164Z,4232
2018-04-24T06:13:21.492Z,4188
2018-04-24T06:14:02.052Z,4152
2018-04-24T06:14:43.317Z,4108
2018-04-24T06:15:24.348Z,4036
2018-04-24T06:16:05.643Z,4612
2018-04-24T06:16:46.695Z,5064
2018-04-24T06:17:27.124Z,5220
2018-04-24T06:18:07.740Z,5536
2018-04-24T06:18:49.337Z,6648
2018-04-24T06:19:29.068Z,7128
2018-04-24T06:20:09.736Z,7244
2018-04-24T06:20:50.091Z,7296
2018-04-24T06:21:30.892Z,7984
2018-04-24T06:22:11.475Z,7576
2018-04-24T06:22:51.764Z,7704
2018-04-24T06:23:32.224Z,7936
2018-04-24T06:24:12.784Z,9040
2018-04-24T06:24:53.313Z,9832
2018-04-24T06:25:33.925Z,10368
2018-04-24T06:26:14.582Z,10668
2018-04-24T06:26:55.030Z,11040
2018-04-24T06:27:35.792Z,11844
2018-04-24T06:28:16.286Z,11920
2018-04-24T06:28:56.953Z,12772
2018-04-24T06:29:37.386Z,12992
2018-04-24T06:30:17.817Z,13584
2018-04-24T06:30:58.358Z,13584
2018-04-24T06:31:39.724Z,12208
2018-04-24T06:32:19.671Z,10404
2018-04-24T06:33:00.436Z,13972
2018-04-24T06:33:41.850Z,16576
2018-04-24T06:34:22.092Z,14748
2018-04-24T06:35:02.658Z,13624
2018-04-24T06:35:44.155Z,12344
2018-04-24T06:36:25.505Z,11244
2018-04-24T06:37:06.226Z,11124
2018-04-24T06:37:46.752Z,13860
2018-04-24T06:38:27.195Z,14824
2018-04-24T06:39:07.789Z,11372
2018-04-24T06:39:48.791Z,10160
2018-04-24T06:40:30.018Z,10328
2018-04-24T06:41:10.784Z,10144
2018-04-24T06:41:51.346Z,11052
2018-04-24T06:42:31.715Z,10824
2018-04-24T06:43:12.443Z,11132
2018-04-24T06:43:52.983Z,8960
2018-04-24T06:44:33.716Z,8076
2018-04-24T06:45:14.208Z,8028
2018-04-24T06:45:55.378Z,7016
2018-04-24T06:46:36.968Z,6976
2018-04-24T06:47:18.506Z,6224
2018-04-24T06:47:58.802Z,5216
2018-04-24T06:48:39.937Z,4984
2018-04-24T06:49:23.158Z,4380
2018-04-24T06:50:03.466Z,4176
2018-04-24T06:50:44.129Z,4364
2018-04-24T06:51:24.713Z,3916
2018-04-24T06:52:05.170Z,3388
2018-04-24T06:52:46.162Z,3044
2018-04-24T06:53:26.750Z,2840
2018-04-24T06:54:07.935Z,2708
2018-04-24T06:54:48.659Z,2600
2018-04-24T06:55:29.359Z,2516
2018-04-24T06:56:10.830Z,2464
2018-04-24T06:56:51.364Z,2416
2018-04-24T06:57:32.386Z,2368
2018-04-24T06:58:12.806Z,2316
2018-04-24T06:58:55.070Z,2216
2018-04-24T06:59:33.896Z,2128
2018-04-24T07:00:14.701Z,2060
2018-04-24T07:00:55.192Z,1964
2018-04-24T07:01:35.498Z,1864
2018-04-24T07:02:15.917Z,1804
2018-04-24T07:02:57.093Z,1760
2018-04-24T07:03:37.531Z,1740
2018-04-24T07:04:18.655Z,1732
2018-04-24T07:04:59.687Z,1740
2018-04-24T07:05:40.739Z,1768
2018-04-24T07:06:21.504Z,1820
2018-04-24T07:07:02.876Z,1896
2018-04-24T07:07:43.355Z,1976
2018-04-24T07:08:25.404Z,2060
2018-04-24T07:09:05.882Z,2172
2018-04-24T07:09:46.450Z,2324
2018-04-24T07:10:26.981Z,2528
2018-04-24T07:11:07.581Z,2660
2018-04-24T07:11:48.289Z,2792
2018-04-24T07:12:29.723Z,2952
2018-04-24T07:13:10.084Z,3188
2018-04-24T07:13:52.982Z,3544
2018-04-24T07:14:33.440Z,3980
2018-04-24T07:15:15.104Z,4104
2018-04-24T07:15:55.575Z,4252
2018-04-24T07:16:36.722Z,4540
2018-04-24T07:17:17.280Z,4972
2018-04-24T07:17:58.139Z,5556
2018-04-24T07:18:40.219Z,6068
2018-04-24T07:19:20.367Z,6988
2018-04-24T07:20:01.002Z,8228
2018-04-24T07:20:41.499Z,7340
2018-04-24T07:21:22.359Z,11216
2018-04-24T07:22:04.210Z,10780
2018-04-24T07:22:47.281Z,11824
2018-04-24T07:23:27.607Z,9772
2018-04-24T07:24:08.301Z,8704
2018-04-24T07:24:48.955Z,9352
2018-04-24T07:25:32.122Z,9524
2018-04-24T07:26:14.119Z,7940
2018-04-24T07:26:53.239Z,7684
2018-04-24T07:27:34.127Z,7056
2018-04-24T07:28:14.724Z,6908
2018-04-24T07:28:55.176Z,6636
2018-04-24T07:29:35.548Z,7288
2018-04-24T07:30:16.371Z,7556
2018-04-24T07:30:56.778Z,6524
2018-04-24T07:31:37.580Z,6324
2018-04-24T07:32:18.097Z,6060
2018-04-24T07:32:58.845Z,6160
2018-04-24T07:33:39.443Z,6052
2018-04-24T07:34:20.783Z,5796
2018-04-24T07:35:01.655Z,5548
2018-04-24T07:35:42.482Z,5592
2018-04-24T07:36:23.293Z,5176
2018-04-24T07:38:41.633Z,4172
2018-04-24T07:39:22.118Z,4000
2018-04-24T07:40:05.569Z,3976
2018-04-24T07:40:44.365Z,3980
2018-04-24T07:41:28.284Z,3764
2018-04-24T07:42:08.915Z,3552
2018-04-24T07:42:50.107Z,3328
2018-04-24T07:43:32.821Z,3080
2018-04-24T07:45:39.607Z,2508
2018-04-24T07:46:20.581Z,2376
2018-04-24T07:47:02.226Z,2232
2018-04-24T07:47:43.709Z,2104
2018-04-24T07:48:24.143Z,2004
2018-04-24T07:49:04.562Z,1952
2018-04-24T07:49:45.552Z,1904
2018-04-24T07:50:27.318Z,1844
2018-04-24T07:51:07.607Z,1780
2018-04-24T07:51:48.074Z,1732
2018-04-24T07:52:28.474Z,1668
2018-04-24T07:53:09.401Z,1596
2018-04-24T07:53:49.938Z,1524
2018-04-24T07:54:33.459Z,1520
2018-04-24T07:55:14.023Z,1508
2018-04-24T08:03:35.057Z,1292
2018-04-24T08:04:15.585Z,1280
2018-04-24T08:04:55.967Z,1244
2018-04-24T08:05:37.366Z,1208
2018-04-24T08:06:18.234Z,1180
2018-04-24T08:06:58.599Z,1168
2018-04-24T08:07:41.065Z,1164
2018-04-24T08:08:20.602Z,1160
2018-04-24T08:09:00.874Z,1172
2018-04-24T08:09:41.275Z,1232
2018-04-24T08:10:22.060Z,1272
2018-04-24T08:11:02.576Z,1300
2018-04-24T08:11:45.120Z,1344
2018-04-24T08:12:25.887Z,1380
2018-04-24T08:13:06.801Z,1432
2018-04-24T08:13:47.290Z,1460
2018-04-24T08:14:28.388Z,1452
2018-04-24T08:15:08.922Z,1468
2018-04-24T08:15:49.382Z,1528
2018-04-24T08:16:32.606Z,1484
2018-04-24T08:17:13.353Z,1392
2018-04-24T08:17:53.720Z,1284
2018-04-24T08:18:35.811Z,1224
2018-04-24T08:19:16.323Z,1224
2018-04-24T08:20:01.944Z,1244
2018-04-24T08:20:45.641Z,1308
2018-04-24T08:21:26.270Z,1380
2018-04-24T08:22:07.009Z,1324
2018-04-24T08:22:47.838Z,1232
2018-04-24T08:23:28.287Z,1208
2018-04-24T08:24:09.038Z,1188
2018-04-24T08:24:49.596Z,1220
2018-04-24T08:25:31.973Z,1220
2018-04-24T08:26:12.738Z,1148
2018-04-24T08:35:27.392Z,820
2018-04-24T08:36:07.775Z,796
2018-04-24T08:36:48.168Z,784
2018-04-24T08:37:29.502Z,808
2018-04-24T08:38:11.663Z,824
2018-04-24T08:38:52.292Z,828
2018-04-24T08:39:32.766Z,844
2018-04-24T08:40:13.192Z,848
2018-04-24T08:40:53.592Z,832
2018-04-24T08:41:34.107Z,796
2018-04-24T08:42:16.728Z,788
2018-04-24T08:42:58.800Z,784
2018-04-24T08:43:39.401Z,768
2018-04-24T08:44:19.809Z,764
2018-04-24T08:45:00.863Z,776
2018-04-24T08:45:41.717Z,768
2018-04-24T08:46:22.163Z,748
2018-04-24T08:47:02.844Z,720
2018-04-24T08:47:43.135Z,700
2018-04-24T08:48:23.802Z,692
2018-04-24T08:49:04.272Z,684
2018-04-24T08:50:28.023Z,660
2018-04-24T08:53:27.314Z,648
2018-04-24T08:55:55.427Z,692
2018-04-24T08:56:36.547Z,700
2018-04-24T08:57:17.437Z,704
2018-04-24T08:57:57.831Z,704
2018-04-24T08:58:38.435Z,708
2018-04-24T09:01:06.654Z,732
2018-04-24T09:01:47.143Z,740
2018-04-24T09:02:27.476Z,756
2018-04-24T09:03:07.873Z,788
2018-04-24T09:03:48.276Z,796
2018-04-24T09:04:43.683Z,752
2018-04-24T09:05:41.828Z,712
2018-04-24T09:08:02.980Z,760
2018-04-24T09:08:43.426Z,760
2018-04-24T09:09:24.691Z,740
2018-04-24T09:14:11.718Z,776
2018-04-24T09:14:52.387Z,756
2018-04-24T09:15:33.186Z,760
2018-04-24T09:16:16.670Z,776
2018-04-24T09:17:00.073Z,768
2018-04-24T09:17:44.978Z,776
2018-04-24T09:18:26.859Z,832
2018-04-24T09:19:10.388Z,940
2018-04-24T09:19:54.344Z,1004
2018-04-24T09:20:35.256Z,1016
2018-04-24T09:21:15.672Z,1000
2018-04-24T09:21:57.519Z,1004
2018-04-24T09:22:38.252Z,1000
2018-04-24T09:23:18.938Z,1000
2018-04-24T09:24:00.143Z,1004
2018-04-24T09:24:41.741Z,1012
2018-04-24T09:25:27.778Z,1048
2018-04-24T09:26:08.177Z,1052
2018-04-24T09:26:49.757Z,1044
2018-04-24T09:27:35.667Z,1052
2018-04-24T09:28:20.174Z,1072
2018-04-24T09:28:59.485Z,1068
2018-04-24T09:29:39.974Z,1024
2018-04-24T09:30:20.532Z,928
2018-04-24T09:31:02.206Z,852
2018-04-24T09:33:03.860Z,912
2018-04-24T09:33:45.201Z,928
2018-04-24T09:34:26.290Z,928
2018-04-24T09:35:07.446Z,920
2018-04-24T09:35:47.942Z,924
2018-04-24T09:36:28.706Z,916
2018-04-24T09:37:10.143Z,896
2018-04-24T09:37:54.665Z,888
2018-04-24T09:38:34.955Z,908
2018-04-24T09:39:16.396Z,932
2018-04-24T09:39:57.679Z,960
2018-04-24T09:40:38.664Z,980
2018-04-24T09:41:19.200Z,968
2018-04-24T09:42:00.480Z,944
2018-04-24T09:42:41.565Z,932
2018-04-24T09:43:22.541Z,908
2018-04-24T09:44:04.597Z,844
2018-04-24T09:44:47.116Z,796
2018-04-24T09:45:28.373Z,792
2018-04-24T09:46:08.229Z,812
2018-04-24T09:46:49.507Z,828
2018-04-24T09:47:30.136Z,856
2018-04-24T09:48:11.212Z,876
2018-04-24T09:48:52.274Z,868
2018-04-24T09:49:34.068Z,856
2018-04-24T09:50:15.679Z,832
2018-04-24T09:50:56.744Z,796
2018-04-24T09:51:36.525Z,780
2018-04-24T09:52:18.174Z,780
2018-04-24T09:52:58.697Z,760
2018-04-24T09:53:39.272Z,740
2018-04-24T09:54:19.847Z,728
2018-04-24T09:55:00.512Z,744
2018-04-24T09:55:42.029Z,796
2018-04-24T09:56:22.479Z,836
2018-04-24T09:57:02.876Z,872
2018-04-24T09:57:43.306Z,908
2018-04-24T09:58:23.863Z,956
2018-04-24T09:59:04.652Z,1012
2018-04-24T09:59:46.036Z,1108
2018-04-24T10:00:26.460Z,1200
2018-04-24T10:01:08.844Z,1268
2018-04-24T10:03:16.457Z,1380
2018-04-24T10:03:57.132Z,1396
2018-04-24T10:43:32.438Z,984
2018-04-24T10:44:14.419Z,988
2018-04-24T10:44:54.837Z,1024
2018-04-24T10:45:37.887Z,1056
2018-04-24T10:46:20.559Z,1096
2018-04-24T10:47:01.545Z,1124
2018-04-24T10:47:42.882Z,1136
2018-04-24T10:48:23.158Z,1164
2018-04-24T10:49:04.648Z,1188
2018-04-24T10:49:45.976Z,1204
2018-04-24T10:50:39.207Z,1284
2018-04-24T10:51:21.119Z,1412
2018-04-24T10:52:05.473Z,1540
2018-04-24T10:54:49.900Z,1720
2018-04-24T10:55:27.417Z,1784
2018-04-24T10:56:08.149Z,1844
2018-04-24T10:56:48.617Z,1824
2018-04-24T10:57:29.868Z,1764
2018-04-24T10:58:10.923Z,1684
2018-04-24T10:58:51.804Z,1720
2018-04-24T10:59:38.665Z,1792
2018-04-24T11:00:18.512Z,1880
2018-04-24T11:00:59.153Z,1896
2018-04-24T11:01:39.500Z,1920
2018-04-24T11:02:20.141Z,1920
2018-04-24T11:03:00.644Z,1872
2018-04-24T11:03:41.511Z,1840
2018-04-24T11:04:22.361Z,1776
2018-04-24T11:05:03.529Z,1748
2018-04-24T11:05:44.212Z,1688
2018-04-24T11:06:28.856Z,1564
2018-04-24T11:07:09.225Z,1480
2018-04-24T11:07:50.575Z,1476
2018-04-24T11:08:30.918Z,1476
2018-04-24T11:09:12.177Z,1500
2018-04-24T11:09:53.021Z,1544
2018-04-24T11:10:33.450Z,1620
2018-04-24T11:11:14.260Z,1664
2018-04-24T11:11:55.606Z,1708
2018-04-24T11:12:35.591Z,1696
2018-04-24T11:13:16.566Z,1676
2018-04-24T11:13:58.084Z,1700
2018-04-24T11:14:39.489Z,1748
2018-04-24T11:15:19.735Z,1828
2018-04-24T11:16:00.740Z,1920
2018-04-24T11:16:40.922Z,1960
2018-04-24T11:17:22.099Z,2016
2018-04-24T11:18:02.075Z,2068
2018-04-24T11:18:44.576Z,2156
2018-04-24T11:19:25.128Z,2244
2018-04-24T11:20:07.935Z,2312
2018-04-24T11:20:48.927Z,2376
2018-04-24T11:21:29.373Z,2400
2018-04-24T11:22:09.783Z,2440
2018-04-24T11:22:51.217Z,2444
2018-04-24T11:23:34.320Z,2500
2018-04-24T11:24:14.345Z,2576
2018-04-24T11:24:55.049Z,2652
2018-04-24T11:25:37.726Z,2652
2018-04-24T11:26:20.421Z,2652
2018-04-24T11:27:02.094Z,2656
2018-04-24T11:27:41.686Z,2636
2018-04-24T11:28:24.321Z,2664
2018-04-24T11:29:07.112Z,2768
2018-04-24T11:29:47.459Z,2852
2018-04-24T11:30:27.823Z,2936
2018-04-24T11:31:09.116Z,3004
2018-04-24T11:31:50.435Z,2996
2018-04-24T11:32:31.659Z,2796
2018-04-24T11:33:13.459Z,2728
2018-04-24T11:33:53.855Z,2776
2018-04-24T11:34:34.373Z,2844
2018-04-24T11:35:20.267Z,2884
2018-04-24T11:36:06.251Z,2828
2018-04-24T11:36:47.021Z,2696
2018-04-24T11:37:27.725Z,2644
2018-04-24T11:38:08.156Z,2796
2018-04-24T11:38:49.123Z,3172
2018-04-24T11:39:29.337Z,3256
2018-04-24T11:40:10.765Z,3512
2018-04-24T11:40:51.082Z,3556
2018-04-24T11:41:31.848Z,3416
2018-04-24T11:42:12.773Z,3380